createdAt,value
2017-09-13T00:02:05.161Z,49.1
2017-09-13T00:07:10.896Z,49.1
2017-09-13T00:12:16.308Z,49.1
2017-09-13T00:17:22.046Z,49.1
2017-09-13T00:22:27.110Z,49
2017-09-13T00:27:32.510Z,49
2017-09-13T00:32:36.910Z,49
2017-09-13T00:37:42.316Z,49
2017-09-13T00:42:47.730Z,49
2017-09-13T00:47:53.135Z,49
2017-09-13T00:52:58.213Z,49
2017-09-13T00:58:03.628Z,49
2017-09-13T01:03:08.706Z,49
2017-09-13T01:08:13.439Z,49
2017-09-13T01:13:19.518Z,49
2017-09-13T01:18:25.968Z,49
2017-09-13T01:23:31.369Z,48.9
2017-09-13T01:28:37.104Z,48.9
2017-09-13T01:33:42.839Z,48.9
2017-09-13T01:38:47.902Z,48.9
2017-09-13T01:43:52.636Z,48.9
2017-09-13T01:48:58.029Z,48.9
2017-09-13T01:54:03.428Z,48.9
2017-09-13T01:59:08.488Z,48.9
2017-09-13T02:04:13.883Z,48.9
2017-09-13T02:09:18.610Z,48.8
2017-09-13T02:14:24.685Z,48.8
2017-09-13T02:19:30.419Z,48.8
2017-09-13T02:24:35.484Z,48.8
2017-09-13T02:29:40.877Z,48.8
2017-09-13T02:34:45.603Z,48.8
2017-09-13T02:39:51.000Z,48.8
2017-09-13T02:44:56.780Z,48.8
2017-09-13T02:50:01.841Z,48.8
2017-09-13T02:55:07.907Z,48.8
2017-09-13T03:00:13.307Z,48.8
2017-09-13T03:05:19.369Z,48.8
2017-09-13T03:10:24.429Z,48.8
2017-09-13T03:15:30.494Z,48.8
2017-09-13T03:20:35.887Z,48.8
2017-09-13T03:25:41.640Z,48.8
2017-09-13T03:30:47.382Z,48.8
2017-09-13T03:35:52.445Z,48.8
2017-09-13T03:40:57.174Z,48.8
2017-09-13T03:46:01.901Z,48.7
2017-09-13T03:51:07.299Z,48.7
2017-09-13T03:56:12.363Z,48.7
2017-09-13T04:01:18.429Z,48.7
2017-09-13T04:06:23.491Z,48.7
2017-09-13T04:11:28.939Z,48.7
2017-09-13T04:16:33.672Z,48.7
2017-09-13T04:21:39.067Z,48.7
2017-09-13T04:26:44.178Z,48.7
2017-09-13T04:31:49.240Z,48.8
2017-09-13T04:36:54.306Z,48.7
2017-09-13T04:41:59.367Z,48.6
2017-09-13T04:47:04.432Z,48.7
2017-09-13T04:52:09.823Z,48.7
2017-09-13T04:57:15.222Z,48.7
2017-09-13T05:02:20.619Z,48.6
2017-09-13T05:07:25.683Z,48.8
2017-09-13T05:12:30.746Z,49.2
2017-09-13T05:17:36.144Z,49.1
2017-09-13T05:22:41.234Z,48.9
2017-09-13T05:27:45.968Z,48.7
2017-09-13T05:32:51.366Z,48.7
2017-09-13T05:37:56.093Z,48.7
2017-09-13T05:43:01.156Z,48.7
2017-09-13T05:48:06.887Z,48.8
2017-09-13T05:53:11.617Z,48.9
2017-09-13T05:58:17.681Z,49
2017-09-13T06:03:23.079Z,49
2017-09-13T06:08:28.474Z,49
2017-09-13T06:13:34.207Z,49.1
2017-09-13T06:18:39.602Z,49.2
2017-09-13T06:23:44.667Z,49.3
2017-09-13T06:28:49.056Z,49.3
2017-09-13T06:33:54.120Z,49.4
2017-09-13T06:38:59.849Z,49.4
2017-09-13T06:44:05.062Z,49.5
2017-09-13T06:49:10.453Z,49.5
2017-09-13T06:54:15.849Z,49.5
2017-09-13T06:59:21.587Z,49.6
2017-09-13T07:04:26.311Z,49.6
2017-09-13T07:09:31.039Z,49.6
2017-09-13T07:14:36.771Z,49.7
2017-09-13T07:19:41.832Z,49.7
2017-09-13T07:24:46.893Z,49.7
2017-09-13T07:29:51.293Z,49.7
2017-09-13T07:34:56.694Z,49.7
2017-09-13T07:40:01.770Z,49.5
2017-09-13T07:45:06.495Z,49.1
2017-09-13T07:50:11.562Z,48.8
2017-09-13T07:55:16.958Z,48.6
2017-09-13T08:00:22.687Z,48.6
2017-09-13T08:05:27.759Z,48.7
2017-09-13T08:10:32.488Z,48.8
2017-09-13T08:15:37.217Z,48.9
2017-09-13T08:20:43.285Z,49
2017-09-13T08:25:48.683Z,49.1
2017-09-13T08:30:54.080Z,49
2017-09-13T08:35:59.142Z,49.1
2017-09-13T08:41:04.204Z,49.1
2017-09-13T08:46:09.605Z,49.2
2017-09-13T08:51:15.342Z,49.2
2017-09-13T08:56:21.076Z,49.3
2017-09-13T09:01:26.476Z,49.3
2017-09-13T09:06:31.205Z,49.2
2017-09-13T09:11:35.601Z,49.3
2017-09-13T09:16:40.997Z,49.3
2017-09-13T09:21:45.720Z,49.3
2017-09-13T09:26:51.453Z,49.3
2017-09-13T09:31:56.515Z,49.3
2017-09-13T09:37:02.250Z,49.3
2017-09-13T09:42:07.311Z,49.3
2017-09-13T09:47:12.372Z,49.3
2017-09-13T09:52:17.104Z,49.2
2017-09-13T09:57:22.169Z,49.1
2017-09-13T10:02:28.242Z,49.1
2017-09-13T10:07:34.311Z,49.2
2017-09-13T10:12:39.042Z,49.2
2017-09-13T10:17:44.445Z,49.2
2017-09-13T10:22:49.846Z,49.3
2017-09-13T10:27:55.245Z,49.3
2017-09-13T10:32:59.975Z,49.3
2017-09-13T10:38:06.043Z,49.4
2017-09-13T10:43:11.777Z,49.4
2017-09-13T10:48:17.510Z,49.5
2017-09-13T10:53:22.331Z,49.4
2017-09-13T10:58:27.066Z,49.3
2017-09-13T11:03:31.792Z,49.1
2017-09-13T11:08:37.529Z,49
2017-09-13T11:13:42.592Z,49
2017-09-13T11:18:47.655Z,49.1
2017-09-13T11:23:53.395Z,49.1
2017-09-13T11:28:59.133Z,49.1
2017-09-13T11:34:04.198Z,48.9
2017-09-13T11:39:09.269Z,48.9
2017-09-13T11:44:15.000Z,48.9
2017-09-13T11:49:20.069Z,48.8
2017-09-13T11:54:25.468Z,48.6
2017-09-13T11:59:30.536Z,48.5
2017-09-13T12:04:35.597Z,48.4
2017-09-13T12:09:41.001Z,48.3
2017-09-13T12:14:45.731Z,48.2
2017-09-13T12:19:50.463Z,48
2017-09-13T12:24:55.866Z,47.8
2017-09-13T12:30:01.931Z,47.7
2017-09-13T12:35:06.662Z,47.6
2017-09-13T12:40:12.395Z,47.6
2017-09-13T12:45:17.462Z,47.5
2017-09-13T12:50:22.865Z,47.5
2017-09-13T12:55:28.466Z,47.5
2017-09-13T13:00:34.537Z,47.5
2017-09-13T13:05:39.941Z,47.6
2017-09-13T13:10:44.669Z,47.7
2017-09-13T13:15:50.071Z,47.7
2017-09-13T13:20:55.144Z,47.7
2017-09-13T13:25:59.874Z,47.8
2017-09-13T13:31:04.272Z,47.9
2017-09-13T13:36:08.668Z,47.9
2017-09-13T13:41:13.731Z,48
2017-09-13T13:46:19.130Z,48
2017-09-13T13:51:24.192Z,48.1
2017-09-13T13:56:29.592Z,48.1
2017-09-13T14:01:33.982Z,48.1
2017-09-13T14:06:40.057Z,48.2
2017-09-13T14:11:45.457Z,48.2
2017-09-13T14:16:50.532Z,48.3
2017-09-13T14:21:55.934Z,48.3
2017-09-13T14:27:01.334Z,48.5
2017-09-13T14:32:06.610Z,48.9
2017-09-13T14:37:12.015Z,49
2017-09-13T14:42:17.422Z,49.1
2017-09-13T14:47:22.494Z,49.1
2017-09-13T14:52:27.233Z,49.1
2017-09-13T14:57:32.314Z,49.1
2017-09-13T15:02:36.709Z,49.1
2017-09-13T15:07:42.109Z,49.1
2017-09-13T15:12:47.508Z,49.1
2017-09-13T15:17:51.902Z,49
2017-09-13T15:22:56.966Z,48.7
2017-09-13T15:28:02.033Z,48.5
2017-09-13T15:33:07.101Z,48.5
2017-09-13T15:38:12.837Z,48.5
2017-09-13T15:43:18.242Z,48.4
2017-09-13T15:48:23.641Z,48.4
2017-09-13T15:53:28.704Z,48.5
2017-09-13T15:58:34.104Z,48.5
2017-09-13T16:03:39.509Z,48.5
2017-09-13T16:08:45.254Z,48.5
2017-09-13T16:13:50.666Z,48.6
2017-09-13T16:18:56.067Z,48.6
2017-09-13T16:24:00.799Z,48.6
2017-09-13T16:29:06.534Z,48.8
2017-09-13T16:34:11.932Z,48.9
2017-09-13T16:39:17.667Z,49
2017-09-13T16:44:22.756Z,49
2017-09-13T16:49:28.145Z,49
2017-09-13T16:54:34.218Z,49.2
2017-09-13T16:59:39.570Z,49.5
2017-09-13T17:04:44.968Z,49.9
2017-09-13T17:09:50.422Z,50
2017-09-13T17:14:55.770Z,50.2
2017-09-13T17:20:00.841Z,50.2
2017-09-13T17:25:06.241Z,50.3
2017-09-13T17:30:11.974Z,50.4
2017-09-13T17:35:17.036Z,50.6
2017-09-13T17:40:21.767Z,50.9
2017-09-13T17:45:27.166Z,51.1
2017-09-13T17:50:32.896Z,51.6
2017-09-13T17:55:38.296Z,52.1
2017-09-13T18:00:43.686Z,52.2
2017-09-13T18:05:49.084Z,52.3
2017-09-13T18:10:54.149Z,52.2
2017-09-13T18:15:59.545Z,52.2
2017-09-13T18:21:04.947Z,52.1
2017-09-13T18:26:10.357Z,51.8
2017-09-13T18:31:15.433Z,51.4
2017-09-13T18:36:21.166Z,51.1
2017-09-13T18:41:26.326Z,51
2017-09-13T18:46:31.102Z,51
2017-09-13T18:51:36.210Z,51
2017-09-13T18:56:41.017Z,51
2017-09-13T19:01:46.439Z,51
2017-09-13T19:06:51.188Z,51
2017-09-13T19:11:56.922Z,51
2017-09-13T19:17:02.321Z,51
2017-09-13T19:22:07.399Z,51
2017-09-13T19:27:12.826Z,51.1
2017-09-13T19:32:17.566Z,51.1
2017-09-13T19:37:22.977Z,51.1
2017-09-13T19:42:27.373Z,51.2
2017-09-13T19:47:33.120Z,51.1
2017-09-13T19:52:38.398Z,51.2
2017-09-13T19:57:43.857Z,51.2
2017-09-13T20:02:48.598Z,51.2
2017-09-13T20:07:53.335Z,51.2
2017-09-13T20:12:58.398Z,51.2
2017-09-13T20:18:03.467Z,51.2
2017-09-13T20:23:08.530Z,51.2
2017-09-13T20:28:13.258Z,51.2
2017-09-13T20:33:18.327Z,51.2
2017-09-13T20:38:23.063Z,51.3
2017-09-13T20:43:28.129Z,51.4
2017-09-13T20:48:33.530Z,51.4
2017-09-13T20:53:38.254Z,51.5
2017-09-13T20:58:43.654Z,51.4
2017-09-13T21:03:48.381Z,51.2
2017-09-13T21:08:53.778Z,51
2017-09-13T21:13:59.176Z,50.9
2017-09-13T21:19:04.904Z,50.8
2017-09-13T21:24:10.300Z,50.7
2017-09-13T21:29:15.364Z,50.7
2017-09-13T21:34:20.428Z,50.7
2017-09-13T21:39:25.830Z,50.7
2017-09-13T21:44:30.560Z,50.6
2017-09-13T21:49:35.643Z,50.6
2017-09-13T21:54:41.359Z,50.6
2017-09-13T21:59:47.089Z,50.6
2017-09-13T22:04:52.485Z,50.6
2017-09-13T22:09:57.542Z,50.6
2017-09-13T22:15:02.945Z,50.6
2017-09-13T22:20:07.330Z,50.6
2017-09-13T22:25:13.061Z,50.6
2017-09-13T22:30:18.118Z,50.6
2017-09-13T22:35:22.847Z,50.6
2017-09-13T22:40:27.906Z,50.6
2017-09-13T22:45:32.961Z,50.6
2017-09-13T22:50:38.356Z,50.5
2017-09-13T22:55:44.082Z,50.5
2017-09-13T23:00:48.811Z,50.5
2017-09-13T23:05:54.208Z,50.5
2017-09-13T23:10:59.270Z,50.5
2017-09-13T23:16:04.998Z,50.5
2017-09-13T23:21:10.397Z,50.5
2017-09-13T23:26:16.130Z,50.5
2017-09-13T23:31:20.851Z,50.5
2017-09-13T23:36:25.572Z,50.4
2017-09-13T23:41:30.638Z,50.4
2017-09-13T23:46:35.695Z,50.4
2017-09-13T23:51:41.085Z,50.4
2017-09-13T23:56:45.813Z,50.4
